Loveland, Colorado
Current Conditions -  °F | °C
As of 3:55 AM on Saturday 25 Oct 2014 (Local Time) from KFNL Reporting Station
Clear Clear  
Wind Chill: 45°   Ceiling: Unl
Heat Index: 45°   Visibility: 10mi
Dew Point: 34°   Wind: 3mph
Humidity: 66%   Direction: 290°WNW
Pressure: 30.21"   Gusts: NA
Location:  40.39°N, 105.07°W
Report Text: KFNL 250955Z AUTO 29003KT 10SM CLR 07/01 A3021 RMK AO1
Loading
Personal Weather Stations






























Interactive Weather Map New forecast layout! Learn more

10-Day Weather Forecast

Advertisements
Track Severe Weather on mobile